Time;durP1;ratioP1;P1;durP2;ratioP2;P2;SDS_P1;SDS_P2;PMS_P1;PMS_P2;Temp;Humidity;BMP_temperature;BMP_pressure;BME280_temperature;BME280_humidity;BME280_pressure;Samples;Min_cycle;Max_cycle;Signal;HPM_P1;HPM_P2
2021/05/11 00:00:55;;;;;;;0.40;0.30;;;13.30;99.90;;;;;;5091188;28;20398;-78
2021/05/11 00:03:20;;;;;;;0.40;0.40;;;13.50;99.90;;;;;;5090291;28;20477;-77
2021/05/11 00:05:46;;;;;;;0.40;0.40;;;13.30;99.90;;;;;;5091432;28;20460;-74
2021/05/11 00:08:12;;;;;;;1.00;1.00;;;13.30;99.90;;;;;;5090391;28;20469;-74
2021/05/11 00:10:37;;;;;;;0.40;0.20;;;13.60;99.90;;;;;;5091147;28;20424;-77
2021/05/11 00:13:03;;;;;;;0.40;0.30;;;13.40;99.90;;;;;;5090489;28;20382;-74
2021/05/11 00:15:29;;;;;;;0.40;0.20;;;13.20;99.90;;;;;;5090745;28;20405;-74
2021/05/11 00:17:54;;;;;;;1.20;1.10;;;13.20;99.90;;;;;;5090562;28;20717;-76
2021/05/11 00:20:20;;;;;;;0.40;0.30;;;13.10;99.90;;;;;;5090049;28;20374;-77
2021/05/11 00:22:48;;;;;;;0.40;0.30;;;13.10;99.90;;;;;;5090788;28;20374;-77
2021/05/11 00:25:14;;;;;;;0.50;0.50;;;13.00;99.90;;;;;;5090044;28;20475;-78
2021/05/11 00:27:41;;;;;;;0.40;0.22;;;13.10;99.90;;;;;;5090685;28;20374;-79
2021/05/11 00:30:09;;;;;;;0.40;0.30;;;13.10;99.90;;;;;;5089992;28;20409;-77
2021/05/11 00:32:35;;;;;;;0.40;0.30;;;12.90;99.90;;;;;;5090720;28;20467;-77
2021/05/11 00:35:00;;;;;;;0.50;0.50;;;12.80;99.90;;;;;;5088998;28;21060;-78
2021/05/11 00:37:26;;;;;;;0.60;0.50;;;13.30;99.90;;;;;;5090238;28;20389;-77
2021/05/11 00:39:52;;;;;;;0.50;0.50;;;12.70;99.90;;;;;;5090604;28;20381;-77
2021/05/11 00:42:17;;;;;;;0.40;0.20;;;12.70;99.90;;;;;;5089725;28;20478;-77
2021/05/11 00:44:43;;;;;;;0.40;0.30;;;12.50;99.90;;;;;;5090544;28;20725;-76
2021/05/11 00:47:09;;;;;;;0.40;0.30;;;13.60;99.90;;;;;;5089565;28;20405;-78
2021/05/11 00:49:36;;;;;;;0.43;0.43;;;12.70;99.90;;;;;;5090086;28;20469;-77
2021/05/11 00:52:05;;;;;;;0.40;0.20;;;13.20;99.90;;;;;;5089601;28;20746;-75
2021/05/11 00:54:31;;;;;;;0.40;0.30;;;12.80;99.90;;;;;;5090199;28;20379;-75
2021/05/11 00:56:57;;;;;;;0.40;0.30;;;12.90;99.90;;;;;;5090335;28;20428;-76
2021/05/11 00:59:27;;;;;;;0.40;0.23;;;12.80;99.90;;;;;;5089928;28;20441;-76
2021/05/11 01:01:54;;;;;;;0.40;0.20;;;12.90;99.90;;;;;;5074442;28;20464;-75
2021/05/11 01:04:20;;;;;;;0.40;0.20;;;12.90;99.90;;;;;;5089520;28;20406;-75
2021/05/11 01:06:46;;;;;;;1.10;1.00;;;12.90;99.90;;;;;;5090069;28;20407;-76
2021/05/11 01:09:12;;;;;;;0.40;0.20;;;12.90;99.90;;;;;;5089658;28;20870;-75
2021/05/11 01:11:39;;;;;;;0.40;0.30;;;12.90;99.90;;;;;;5090133;28;20374;-74
2021/05/11 01:14:05;;;;;;;1.60;1.10;;;13.20;99.90;;;;;;5089569;28;20466;-76
2021/05/11 01:16:32;;;;;;;0.40;0.20;;;12.80;99.90;;;;;;5090196;28;20801;-75
2021/05/11 01:19:04;;;;;;;0.80;0.80;;;12.80;99.90;;;;;;5090233;28;20382;-75
2021/05/11 01:21:40;;;;;;;0.40;0.20;;;12.90;99.90;;;;;;5090131;28;20386;-75
2021/05/11 01:26:43;;;;;;;1.20;1.10;;;12.90;99.90;;;;;;5089778;28;20390;-75
2021/05/11 01:29:26;;;;;;;0.50;0.50;;;12.90;99.90;;;;;;5089404;28;20465;-75
2021/05/11 01:32:44;;;;;;;1.00;0.90;;;13.00;99.90;;;;;;5073720;28;20378;-75
2021/05/11 01:50:56;;;;;;;0.77;0.63;;;12.80;99.90;;;;;;5093434;28;20378;-75
2021/05/11 01:53:46;;;;;;;2.88;1.98;;;12.80;99.90;;;;;;5092722;28;20409;-75
2021/05/11 02:10:27;;;;;;;0.40;0.20;;;13.10;99.90;;;;;;5092979;28;20381;-75
2021/05/11 02:23:36;;;;;;;0.40;0.40;;;13.10;99.90;;;;;;5092489;28;20985;-76
2021/05/11 02:26:03;;;;;;;0.40;0.20;;;13.00;99.90;;;;;;5092697;28;20469;-75
2021/05/11 02:28:29;;;;;;;0.60;0.60;;;13.10;99.90;;;;;;5091991;28;20738;-76
2021/05/11 02:30:55;;;;;;;0.40;0.30;;;13.00;99.90;;;;;;5092632;28;20374;-75
2021/05/11 02:33:21;;;;;;;0.40;0.20;;;13.00;99.90;;;;;;5092188;28;20374;-73
2021/05/11 02:35:47;;;;;;;0.40;0.20;;;13.20;99.90;;;;;;5092154;28;20907;-73
2021/05/11 02:38:14;;;;;;;0.40;0.30;;;13.10;99.90;;;;;;5091757;28;20402;-73
2021/05/11 02:40:40;;;;;;;0.40;0.20;;;13.00;99.90;;;;;;5092644;28;20378;-73
2021/05/11 02:43:18;;;;;;;0.80;0.80;;;13.10;99.90;;;;;;5092348;28;20378;-75
2021/05/11 02:45:44;;;;;;;0.68;0.63;;;12.90;99.90;;;;;;5092182;28;20405;-76
2021/05/11 02:48:10;;;;;;;0.40;0.30;;;12.90;99.90;;;;;;5091196;28;20378;-74
2021/05/11 02:50:36;;;;;;;0.40;0.20;;;12.90;99.90;;;;;;5091942;28;20448;-73
2021/05/11 02:53:03;;;;;;;0.50;0.40;;;12.90;99.90;;;;;;5092415;28;20378;-73
2021/05/11 02:55:29;;;;;;;0.43;0.40;;;13.00;99.90;;;;;;5091241;28;20489;-73
2021/05/11 02:57:55;;;;;;;0.40;0.20;;;12.90;99.90;;;;;;5092078;28;20382;-73
2021/05/11 03:00:23;;;;;;;0.80;0.80;;;12.90;99.90;;;;;;5091312;28;20404;-76
2021/05/11 03:02:50;;;;;;;0.40;0.20;;;12.70;99.90;;;;;;5091923;28;20475;-75
2021/05/11 03:05:16;;;;;;;0.40;0.40;;;12.80;99.90;;;;;;5091687;28;20402;-73
2021/05/11 03:07:42;;;;;;;0.70;0.70;;;13.00;99.90;;;;;;5091756;28;20378;-73
2021/05/11 03:10:10;;;;;;;0.47;0.38;;;13.10;99.90;;;;;;5091797;28;20461;-74
2021/05/11 03:12:36;;;;;;;0.50;0.50;;;12.90;99.90;;;;;;5091903;28;20379;-74
2021/05/11 03:15:03;;;;;;;1.20;0.60;;;12.90;99.90;;;;;;5091339;28;20408;-74
2021/05/11 03:17:29;;;;;;;0.60;0.60;;;12.90;99.90;;;;;;5090960;28;20770;-74
2021/05/11 03:19:54;;;;;;;0.40;0.30;;;12.90;99.90;;;;;;5091617;28;20852;-75
2021/05/11 03:22:20;;;;;;;0.70;0.70;;;12.90;99.90;;;;;;5091043;28;20741;-75
2021/05/11 03:24:46;;;;;;;0.40;0.30;;;12.90;99.90;;;;;;5091527;28;20386;-74
2021/05/11 03:27:13;;;;;;;0.80;0.80;;;12.90;99.90;;;;;;5090687;28;20378;-75
2021/05/11 03:29:39;;;;;;;1.40;0.60;;;13.00;99.90;;;;;;5091375;28;20465;-75
2021/05/11 03:32:06;;;;;;;0.40;0.32;;;12.90;99.90;;;;;;5091120;28;20925;-75
2021/05/11 03:34:32;;;;;;;0.40;0.30;;;12.90;99.90;;;;;;5089424;28;20390;-75
2021/05/11 03:36:58;;;;;;;0.40;0.40;;;12.90;99.90;;;;;;5091432;28;20413;-75
2021/05/11 03:39:24;;;;;;;2.00;1.00;;;12.90;99.90;;;;;;5090956;28;20423;-75
2021/05/11 03:41:56;;;;;;;0.40;0.30;;;12.70;99.90;;;;;;5074519;28;20716;-75
2021/05/11 03:44:25;;;;;;;0.40;0.20;;;12.70;99.90;;;;;;5090696;28;20385;-74
2021/05/11 03:46:51;;;;;;;1.30;1.20;;;12.70;99.90;;;;;;5091127;28;20388;-75
2021/05/11 03:49:17;;;;;;;1.20;0.80;;;12.50;99.90;;;;;;5090673;28;20370;-75
2021/05/11 03:51:43;;;;;;;0.40;0.20;;;12.70;99.90;;;;;;5091117;28;20517;-75
2021/05/11 03:54:10;;;;;;;0.40;0.30;;;12.50;99.90;;;;;;5091116;28;20378;-74
2021/05/11 03:56:36;;;;;;;0.40;0.20;;;12.60;99.90;;;;;;5090173;28;20410;-74
2021/05/11 03:59:03;;;;;;;0.40;0.20;;;12.70;99.90;;;;;;5090788;28;20370;-74
2021/05/11 04:01:29;;;;;;;0.50;0.50;;;12.70;99.90;;;;;;5090494;28;20386;-74
2021/05/11 04:03:55;;;;;;;0.40;0.40;;;12.70;99.90;;;;;;5091240;28;20374;-74
2021/05/11 04:06:20;;;;;;;0.40;0.28;;;12.70;99.90;;;;;;5090891;28;20398;-75
2021/05/11 04:16:34;;;;;;;0.40;0.40;;;12.70;99.90;;;;;;5090720;28;20492;-75
2021/05/11 04:19:00;;;;;;;0.40;0.20;;;12.70;99.90;;;;;;5091197;28;20370;-75
2021/05/11 04:21:26;;;;;;;1.30;0.80;;;12.70;99.90;;;;;;5090456;28;20856;-75
2021/05/11 04:23:52;;;;;;;0.40;0.30;;;12.90;99.90;;;;;;5090897;28;20378;-75
2021/05/11 04:26:19;;;;;;;0.40;0.30;;;12.80;99.90;;;;;;5090578;28;20374;-75
2021/05/11 04:28:46;;;;;;;0.60;0.60;;;12.80;99.90;;;;;;5091175;28;20382;-75
2021/05/11 04:31:12;;;;;;;0.60;0.60;;;12.80;99.90;;;;;;5091256;28;20465;-76
2021/05/11 04:33:38;;;;;;;0.40;0.30;;;12.70;99.90;;;;;;5090707;28;20462;-75
2021/05/11 04:36:05;;;;;;;0.40;0.30;;;12.80;99.90;;;;;;5090401;28;20417;-75
2021/05/11 04:38:30;;;;;;;1.60;1.50;;;12.80;99.90;;;;;;5090365;28;20382;-75
2021/05/11 04:40:56;;;;;;;0.40;0.20;;;12.80;99.90;;;;;;5091132;28;20469;-76
2021/05/11 04:43:25;;;;;;;0.40;0.30;;;12.80;99.90;;;;;;5090544;28;20389;-75
2021/05/11 04:46:01;;;;;;;0.40;0.20;;;12.80;99.90;;;;;;5071788;28;20861;-75
2021/05/11 04:48:27;;;;;;;0.60;0.60;;;12.70;99.90;;;;;;5081646;28;20383;-76
2021/05/11 04:50:53;;;;;;;1.30;1.20;;;13.20;99.90;;;;;;5075838;28;20433;-76
2021/05/11 04:53:19;;;;;;;0.40;0.20;;;12.80;99.90;;;;;;5077000;28;20451;-76
2021/05/11 04:55:45;;;;;;;0.50;0.50;;;12.80;99.90;;;;;;5075659;28;20410;-76
2021/05/11 04:58:11;;;;;;;0.50;0.50;;;13.10;99.90;;;;;;5077674;28;20392;-76
2021/05/11 05:00:37;;;;;;;0.40;0.20;;;12.90;99.90;;;;;;5079823;28;20378;-75
2021/05/11 05:03:06;;;;;;;0.40;0.30;;;12.90;99.90;;;;;;5091144;28;20421;-75
2021/05/11 05:05:31;;;;;;;0.57;0.57;;;12.90;99.90;;;;;;5089710;28;20402;-75
2021/05/11 05:07:57;;;;;;;0.40;0.30;;;12.90;99.90;;;;;;5091633;28;20466;-75
2021/05/11 05:10:23;;;;;;;0.40;0.20;;;12.90;99.90;;;;;;5093430;28;20384;-75
2021/05/11 05:12:48;;;;;;;0.40;0.20;;;12.90;99.90;;;;;;5093984;28;20795;-75
2021/05/11 05:15:15;;;;;;;0.40;0.20;;;13.00;99.90;;;;;;5094004;28;20406;-75
2021/05/11 05:17:41;;;;;;;1.40;1.20;;;12.80;99.90;;;;;;5094072;28;20473;-76
2021/05/11 05:20:07;;;;;;;0.40;0.30;;;13.00;99.90;;;;;;5093853;28;20536;-76
2021/05/11 05:22:33;;;;;;;0.40;0.40;;;12.80;99.90;;;;;;5093355;28;20401;-75
2021/05/11 05:25:07;;;;;;;1.30;1.00;;;12.80;99.90;;;;;;5093663;28;20839;-75
2021/05/11 05:27:51;;;;;;;0.40;0.30;;;12.80;99.90;;;;;;5092735;28;20684;-76
2021/05/11 05:30:17;;;;;;;1.50;0.90;;;12.90;99.90;;;;;;5092694;28;20394;-76
2021/05/11 05:32:43;;;;;;;0.40;0.20;;;12.90;99.90;;;;;;5091270;28;20405;-74
2021/05/11 05:35:10;;;;;;;0.40;0.37;;;12.90;99.90;;;;;;5092639;28;20739;-74
2021/05/11 05:37:35;;;;;;;0.40;0.20;;;13.00;99.90;;;;;;5092321;28;20386;-74
2021/05/11 05:40:03;;;;;;;0.90;0.90;;;13.00;99.90;;;;;;5092782;28;20470;-74
2021/05/11 05:42:28;;;;;;;0.40;0.30;;;13.10;99.90;;;;;;5091951;28;20774;-74
2021/05/11 05:44:54;;;;;;;0.40;0.20;;;13.20;99.90;;;;;;5092993;28;20540;-74
2021/05/11 05:47:21;;;;;;;0.70;0.70;;;13.20;99.90;;;;;;5092488;28;20409;-74
2021/05/11 05:49:49;;;;;;;0.47;0.47;;;13.10;99.90;;;;;;5093469;28;20481;-74
2021/05/11 05:52:34;;;;;;;0.40;0.30;;;13.20;99.90;;;;;;5093534;28;20455;-74
2021/05/11 05:55:00;;;;;;;0.40;0.30;;;13.00;99.90;;;;;;5092196;28;20902;-73
2021/05/11 05:57:26;;;;;;;0.40;0.20;;;13.10;99.90;;;;;;5092437;28;20862;-74
2021/05/11 05:59:51;;;;;;;0.40;0.30;;;13.10;99.90;;;;;;5092789;28;20370;-74
2021/05/11 06:02:19;;;;;;;0.40;0.30;;;12.90;99.90;;;;;;5093106;28;20417;-74
2021/05/11 06:04:44;;;;;;;0.40;0.40;;;12.90;99.90;;;;;;5093447;28;20386;-74
2021/05/11 06:07:12;;;;;;;0.40;0.20;;;12.80;99.90;;;;;;5091655;28;20801;-74
2021/05/11 06:09:38;;;;;;;0.50;0.40;;;12.90;99.90;;;;;;5092634;28;20385;-73
2021/05/11 06:17:13;;;;;;;0.40;0.30;;;12.90;99.90;;;;;;5090683;28;20385;-75
2021/05/11 06:17:49;;;;;;;0.40;0.20;;;12.90;99.90;;;;;;5090715;28;20409;-74
2021/05/11 06:20:15;;;;;;;0.60;0.57;;;13.00;99.90;;;;;;5092804;28;20382;-74
2021/05/11 06:22:41;;;;;;;0.40;0.30;;;12.80;99.90;;;;;;5092330;28;21022;-74
2021/05/11 06:25:09;;;;;;;0.40;0.20;;;12.80;99.90;;;;;;5093054;28;20495;-74
2021/05/11 06:27:34;;;;;;;0.40;0.30;;;12.90;99.90;;;;;;5090863;28;20784;-74
2021/05/11 06:30:00;;;;;;;0.40;0.20;;;13.00;99.90;;;;;;5092985;28;20417;-74
2021/05/11 06:32:27;;;;;;;0.60;0.50;;;13.20;99.90;;;;;;5091701;28;20374;-74
2021/05/11 06:35:00;;;;;;;0.40;0.40;;;13.30;99.90;;;;;;5092347;28;20836;-74
2021/05/11 06:37:26;;;;;;;0.40;0.20;;;13.20;99.90;;;;;;5091730;28;20924;-75
2021/05/11 06:39:52;;;;;;;0.40;0.20;;;13.30;99.90;;;;;;5091902;28;20449;-74
2021/05/11 06:42:21;;;;;;;0.40;0.40;;;13.40;99.90;;;;;;5092442;28;20385;-73
2021/05/11 06:45:12;;;;;;;0.40;0.30;;;13.50;99.90;;;;;;5090799;28;20379;-73
2021/05/11 06:50:44;;;;;;;0.80;0.70;;;13.30;99.90;;;;;;5091406;28;20381;-73
2021/05/11 06:53:13;;;;;;;0.40;0.20;;;13.50;99.90;;;;;;5091059;28;20409;-73
2021/05/11 06:55:42;;;;;;;1.10;0.90;;;13.50;99.90;;;;;;5090460;28;20489;-74
2021/05/11 06:58:09;;;;;;;0.40;0.30;;;13.70;99.90;;;;;;5091649;28;20443;-73
2021/05/11 07:00:35;;;;;;;0.50;0.50;;;13.60;99.90;;;;;;5091137;28;20393;-73
2021/05/11 07:03:01;;;;;;;0.40;0.40;;;13.40;99.90;;;;;;5091825;28;20720;-73
2021/05/11 07:05:29;;;;;;;0.40;0.30;;;13.50;99.90;;;;;;5091140;28;20402;-74
2021/05/11 07:08:03;;;;;;;0.40;0.20;;;13.60;99.90;;;;;;5091779;28;20404;-74
2021/05/11 07:10:32;;;;;;;0.40;0.20;;;13.80;99.90;;;;;;5091056;28;20716;-74
2021/05/11 07:13:11;;;;;;;0.50;0.50;;;13.70;99.90;;;;;;5092012;28;20381;-73
2021/05/11 07:15:46;;;;;;;0.40;0.30;;;13.70;99.90;;;;;;5089098;28;20410;-73
2021/05/11 07:18:27;;;;;;;0.60;0.60;;;13.70;99.90;;;;;;5091880;28;20831;-75
2021/05/11 07:20:57;;;;;;;0.40;0.30;;;13.40;99.90;;;;;;5092059;28;20463;-74
2021/05/11 07:23:24;;;;;;;0.40;0.20;;;13.20;99.90;;;;;;5091775;28;20378;-75
2021/05/11 07:28:34;;;;;;;0.40;0.30;;;13.20;99.90;;;;;;5092091;28;20375;-75
2021/05/11 07:31:03;;;;;;;0.40;0.30;;;13.10;99.90;;;;;;5090791;28;20873;-73
2021/05/11 07:33:41;;;;;;;0.40;0.30;;;13.10;99.90;;;;;;5090709;28;20788;-74
2021/05/11 07:36:07;;;;;;;0.40;0.20;;;13.10;99.90;;;;;;5091345;28;20425;-74
2021/05/11 07:38:34;;;;;;;0.40;0.20;;;13.10;99.90;;;;;;5091327;28;20828;-73
2021/05/11 07:41:00;;;;;;;0.40;0.40;;;13.30;99.90;;;;;;5091921;28;20700;-73
2021/05/11 07:43:26;;;;;;;0.40;0.20;;;13.20;99.90;;;;;;5091336;28;20797;-74
2021/05/11 08:17:32;;;;;;;0.60;0.60;;;13.20;99.90;;;;;;5090325;28;20416;-74
2021/05/11 08:23:10;;;;;;;0.40;0.30;;;13.40;99.90;;;;;;5090424;28;20431;-73
2021/05/11 08:28:20;;;;;;;0.40;0.40;;;13.40;99.90;;;;;;5090741;28;20732;-73
2021/05/11 08:30:46;;;;;;;0.40;0.40;;;13.30;99.90;;;;;;5090048;28;20469;-73
2021/05/11 08:33:12;;;;;;;0.40;0.30;;;13.30;99.90;;;;;;5090426;28;20370;-73
2021/05/11 08:35:38;;;;;;;0.50;0.40;;;13.30;99.90;;;;;;5090031;28;20422;-72
2021/05/11 08:38:03;;;;;;;0.40;0.40;;;13.40;99.90;;;;;;5090705;28;20378;-73
2021/05/11 08:40:30;;;;;;;0.40;0.30;;;13.30;99.90;;;;;;5090470;28;20392;-75
2021/05/11 08:42:58;;;;;;;0.40;0.30;;;13.30;99.90;;;;;;5093380;28;20386;-73
2021/05/11 08:45:24;;;;;;;0.40;0.20;;;13.30;99.90;;;;;;5094599;28;20469;-73
2021/05/11 08:47:50;;;;;;;0.40;0.40;;;13.30;99.90;;;;;;5094356;28;20816;-73
2021/05/11 08:50:27;;;;;;;0.40;0.20;;;13.40;99.90;;;;;;5094982;28;20378;-73
2021/05/11 09:45:03;;;;;;;0.50;0.50;;;14.00;99.90;;;;;;5092773;28;20408;-72
2021/05/11 09:58:42;;;;;;;0.40;0.30;;;13.70;99.90;;;;;;5092790;28;20461;-72
2021/05/11 10:38:29;;;;;;;0.40;0.30;;;12.50;99.90;;;;;;5091857;28;20899;-80
2021/05/11 10:48:24;;;;;;;0.40;0.30;;;12.60;99.90;;;;;;5091546;28;20414;-85
2021/05/11 10:50:56;;;;;;;0.40;0.20;;;12.60;99.90;;;;;;5091560;28;20386;-81
2021/05/11 10:53:41;;;;;;;0.40;0.30;;;12.50;99.90;;;;;;5092457;28;20378;-81
2021/05/11 10:56:27;;;;;;;0.40;0.20;;;12.50;99.90;;;;;;5092592;28;20406;-80
2021/05/11 11:02:03;;;;;;;0.40;0.20;;;12.40;99.90;;;;;;5090793;28;20382;-81
2021/05/11 11:04:33;;;;;;;0.40;0.30;;;12.60;99.90;;;;;;5091474;28;20402;-82
2021/05/11 11:09:37;;;;;;;0.40;0.30;;;12.70;99.90;;;;;;5093719;28;20387;-83
2021/05/11 11:12:08;;;;;;;0.40;0.40;;;12.80;99.90;;;;;;5074780;28;20452;-84
2021/05/11 11:14:41;;;;;;;0.40;0.20;;;12.90;99.90;;;;;;5092061;28;20446;-85
2021/05/11 11:17:09;;;;;;;0.40;0.30;;;12.90;99.90;;;;;;5090583;28;20513;-84
2021/05/11 11:19:36;;;;;;;0.40;0.20;;;12.90;99.90;;;;;;5091521;28;20381;-84
2021/05/11 11:24:58;;;;;;;0.40;0.28;;;12.90;99.90;;;;;;5091030;28;20448;-83
2021/05/11 11:27:32;;;;;;;0.70;0.70;;;13.10;99.90;;;;;;5090787;28;20440;-83
2021/05/11 11:30:04;;;;;;;0.40;0.20;;;13.10;99.90;;;;;;5090907;28;20374;-83
2021/05/11 11:32:30;;;;;;;0.40;0.20;;;13.00;99.90;;;;;;5090299;28;20663;-83
2021/05/11 11:35:00;;;;;;;0.70;0.60;;;13.20;99.90;;;;;;5090668;28;20667;-84
2021/05/11 11:37:29;;;;;;;0.40;0.30;;;13.30;99.90;;;;;;5092204;28;20414;-83
2021/05/11 11:39:59;;;;;;;0.40;0.30;;;13.40;99.90;;;;;;5090334;28;20398;-83
2021/05/11 11:42:39;;;;;;;0.40;0.20;;;13.30;99.90;;;;;;5089331;28;20397;-83
2021/05/11 11:45:12;;;;;;;0.40;0.30;;;13.30;99.90;;;;;;5092602;28;20439;-84
2021/05/11 11:47:50;;;;;;;0.40;0.20;;;13.40;99.90;;;;;;5090740;28;20378;-81
2021/05/11 11:50:16;;;;;;;0.40;0.20;;;13.30;99.90;;;;;;5091681;28;20381;-83
2021/05/11 11:58:02;;;;;;;0.40;0.30;;;13.10;99.90;;;;;;5059791;28;20396;-82
2021/05/11 12:00:30;;;;;;;0.40;0.20;;;13.10;99.90;;;;;;5091204;28;20986;-81
2021/05/11 12:03:12;;;;;;;0.40;0.20;;;13.10;99.90;;;;;;5090630;28;20381;-83
2021/05/11 12:05:49;;;;;;;0.50;0.50;;;13.10;99.90;;;;;;5091483;28;20455;-78
2021/05/11 12:08:25;;;;;;;0.40;0.20;;;13.20;99.90;;;;;;5091195;28;20872;-83
2021/05/11 12:11:00;;;;;;;0.40;0.20;;;13.20;99.90;;;;;;5088976;28;20390;-83
2021/05/11 12:13:27;;;;;;;0.40;0.20;;;13.30;99.90;;;;;;5091428;28;20382;-83
2021/05/11 12:16:20;;;;;;;0.40;0.20;;;13.20;99.90;;;;;;5090428;28;20413;-81
2021/05/11 12:19:13;;;;;;;0.50;0.50;;;13.30;99.90;;;;;;5088557;28;20391;-82
2021/05/11 12:21:54;;;;;;;0.40;0.30;;;13.10;99.90;;;;;;5065239;28;20525;-79
2021/05/11 12:24:24;;;;;;;0.40;0.30;;;13.20;99.90;;;;;;5070176;28;20384;-82
2021/05/11 12:26:50;;;;;;;0.40;0.20;;;13.20;99.90;;;;;;5069513;28;20765;-81
2021/05/11 12:29:18;;;;;;;0.40;0.30;;;13.20;99.90;;;;;;5080968;28;20427;-80
2021/05/11 12:31:46;;;;;;;0.40;0.20;;;13.30;99.90;;;;;;5087631;28;20386;-79
2021/05/11 12:34:15;;;;;;;0.40;0.20;;;13.40;99.90;;;;;;5090651;28;20385;-80
2021/05/11 12:36:47;;;;;;;0.40;0.28;;;13.40;99.90;;;;;;5090346;28;20421;-78
2021/05/11 12:39:32;;;;;;;0.40;0.20;;;13.30;99.90;;;;;;5088746;28;20398;-80
2021/05/11 12:42:24;;;;;;;0.40;0.20;;;13.40;99.90;;;;;;5090105;28;20382;-80
2021/05/11 12:45:19;;;;;;;0.40;0.20;;;13.40;99.90;;;;;;5088674;28;20393;-80
2021/05/11 12:47:52;;;;;;;0.40;0.30;;;13.30;99.90;;;;;;5071136;28;20474;-78
2021/05/11 12:50:23;;;;;;;0.40;0.30;;;13.30;99.90;;;;;;5088915;28;20976;-79
2021/05/11 12:53:16;;;;;;;0.40;0.20;;;13.30;99.90;;;;;;5088204;28;20397;-81
2021/05/11 12:56:08;;;;;;;0.40;0.30;;;13.10;99.90;;;;;;5088048;28;20441;-78
2021/05/11 13:01:24;;;;;;;0.40;0.25;;;13.10;99.90;;;;;;5089017;28;20370;-80
2021/05/11 13:15:37;;;;;;;0.40;0.30;;;13.00;99.90;;;;;;5089730;28;20420;-80
2021/05/11 13:26:06;;;;;;;0.40;0.30;;;13.00;99.90;;;;;;5089867;28;20413;-79
2021/05/11 13:36:35;;;;;;;0.40;0.20;;;13.00;99.90;;;;;;5092360;28;20465;-80
2021/05/11 13:39:01;;;;;;;0.40;0.20;;;13.00;99.90;;;;;;5093113;28;20390;-80
2021/05/11 13:41:26;;;;;;;0.40;0.20;;;13.00;99.90;;;;;;5093552;28;20461;-80
2021/05/11 13:43:52;;;;;;;0.40;0.20;;;13.00;99.90;;;;;;5093555;28;20378;-78
2021/05/11 13:46:18;;;;;;;0.40;0.20;;;13.00;99.90;;;;;;5093642;28;20374;-78
2021/05/11 13:48:46;;;;;;;0.40;0.30;;;13.00;99.90;;;;;;5093396;28;20883;-78
2021/05/11 13:51:18;;;;;;;0.40;0.30;;;13.00;99.90;;;;;;5093025;28;20410;-78
2021/05/11 13:53:47;;;;;;;0.40;0.20;;;13.10;99.90;;;;;;5092632;28;20445;-78
2021/05/11 13:56:21;;;;;;;0.40;0.20;;;13.00;99.90;;;;;;5093446;28;20410;-78
2021/05/11 14:04:01;;;;;;;0.40;0.20;;;13.10;99.90;;;;;;5092944;28;20452;-79
2021/05/11 14:06:27;;;;;;;0.40;0.30;;;13.20;99.90;;;;;;5093956;28;20402;-80
2021/05/11 14:08:53;;;;;;;0.40;0.30;;;13.20;99.90;;;;;;5093083;28;20374;-79
2021/05/11 14:11:19;;;;;;;0.40;0.30;;;13.20;99.90;;;;;;5092426;28;20477;-79
2021/05/11 14:13:45;;;;;;;0.40;0.30;;;13.20;99.90;;;;;;5093468;28;20375;-80
2021/05/11 14:16:10;;;;;;;0.40;0.20;;;13.70;99.90;;;;;;5091100;28;20958;-77
2021/05/11 14:18:36;;;;;;;3.40;0.60;;;13.00;99.90;;;;;;5092908;28;20474;-78
2021/05/11 14:21:02;;;;;;;0.40;0.20;;;13.00;99.90;;;;;;5092560;28;20855;-77
2021/05/11 14:23:28;;;;;;;0.40;0.20;;;13.00;99.90;;;;;;5093078;28;20377;-77
2021/05/11 14:25:54;;;;;;;0.40;0.30;;;13.10;99.90;;;;;;5092812;28;20382;-77
2021/05/11 14:28:20;;;;;;;0.40;0.30;;;13.20;99.90;;;;;;5093802;28;20529;-77
2021/05/11 14:30:46;;;;;;;0.40;0.20;;;13.20;99.90;;;;;;5093054;28;20414;-77
2021/05/11 14:33:11;;;;;;;0.40;0.20;;;13.30;99.90;;;;;;5091990;28;20395;-78
2021/05/11 14:35:37;;;;;;;0.40;0.20;;;13.30;99.90;;;;;;5093087;28;20418;-77
2021/05/11 14:38:03;;;;;;;0.40;0.20;;;13.20;99.90;;;;;;5092363;28;20382;-78
2021/05/11 14:40:29;;;;;;;0.40;0.30;;;13.10;99.90;;;;;;5092417;28;20382;-77
2021/05/11 14:42:54;;;;;;;0.40;0.30;;;13.20;99.90;;;;;;5092418;28;20370;-77
2021/05/11 14:45:23;;;;;;;0.40;0.20;;;13.20;99.90;;;;;;5092888;28;20851;-77
2021/05/11 14:47:48;;;;;;;0.40;0.20;;;13.20;99.90;;;;;;5091460;28;20457;-78
2021/05/11 14:50:19;;;;;;;0.40;0.20;;;13.30;99.90;;;;;;5093121;28;20519;-78
2021/05/11 14:52:45;;;;;;;0.40;0.30;;;13.20;99.90;;;;;;5092836;28;20400;-76
2021/05/11 14:55:17;;;;;;;0.40;0.30;;;13.10;99.90;;;;;;5091960;28;20371;-77
2021/05/11 14:57:43;;;;;;;0.40;0.30;;;13.20;99.90;;;;;;5093021;28;20396;-78
2021/05/11 15:00:09;;;;;;;0.40;0.20;;;13.30;99.90;;;;;;5091778;28;20931;-78
2021/05/11 15:02:35;;;;;;;0.40;0.30;;;13.40;99.90;;;;;;5091433;28;20410;-78
2021/05/11 15:05:02;;;;;;;0.40;0.30;;;13.40;99.90;;;;;;5091927;28;20386;-78
2021/05/11 15:07:28;;;;;;;0.40;0.30;;;13.40;99.90;;;;;;5092524;28;20495;-77
2021/05/11 15:09:53;;;;;;;0.40;0.30;;;13.40;99.90;;;;;;5092200;28;20840;-78
2021/05/11 15:12:22;;;;;;;0.40;0.30;;;13.30;99.90;;;;;;5091908;28;20370;-78
2021/05/11 15:14:51;;;;;;;0.40;0.20;;;13.20;99.90;;;;;;5091954;28;20370;-78
2021/05/11 15:19:49;;;;;;;0.40;0.30;;;13.30;99.90;;;;;;5091750;28;20424;-78
2021/05/11 15:22:16;;;;;;;0.40;0.20;;;13.10;99.90;;;;;;5090789;28;20743;-78
2021/05/11 15:24:42;;;;;;;0.40;0.30;;;13.20;99.90;;;;;;5092439;28;20744;-78
2021/05/11 15:27:08;;;;;;;0.40;0.30;;;13.30;99.90;;;;;;5092414;28;20370;-78
2021/05/11 15:29:34;;;;;;;0.40;0.20;;;13.30;99.90;;;;;;5092232;28;20428;-78
2021/05/11 15:31:59;;;;;;;0.40;0.20;;;13.30;99.90;;;;;;5088975;28;20391;-78
2021/05/11 15:34:27;;;;;;;0.40;0.30;;;13.40;99.90;;;;;;5091639;28;20405;-79
2021/05/11 15:36:53;;;;;;;0.40;0.20;;;13.50;99.90;;;;;;5089745;28;20471;-77
2021/05/11 15:39:19;;;;;;;0.40;0.20;;;13.40;99.90;;;;;;5091434;28;20378;-77
2021/05/11 15:41:45;;;;;;;0.40;0.20;;;13.40;99.90;;;;;;5091594;28;20385;-77
2021/05/11 15:44:10;;;;;;;0.40;0.20;;;13.50;99.90;;;;;;5089258;28;20807;-77
2021/05/11 15:46:37;;;;;;;0.40;0.20;;;13.50;99.90;;;;;;5090027;28;20856;-79
2021/05/11 15:49:03;;;;;;;0.40;0.20;;;13.60;99.90;;;;;;5088772;28;20505;-78
2021/05/11 15:51:46;;;;;;;0.40;0.30;;;13.70;99.90;;;;;;5090355;28;20465;-79
2021/05/11 15:54:12;;;;;;;0.40;0.30;;;13.60;99.90;;;;;;5090736;28;20390;-78
2021/05/11 15:56:37;;;;;;;0.40;0.20;;;13.60;99.90;;;;;;5091610;28;20421;-78
2021/05/11 15:59:06;;;;;;;0.67;0.37;;;13.60;99.90;;;;;;5090784;28;20389;-79
2021/05/11 16:01:31;;;;;;;0.40;0.30;;;13.40;99.90;;;;;;5090377;28;20469;-79
2021/05/11 16:03:57;;;;;;;0.40;0.27;;;13.40;99.90;;;;;;5090324;28;20527;-78
2021/05/11 16:06:23;;;;;;;0.40;0.20;;;13.50;99.90;;;;;;5089586;28;20433;-79
2021/05/11 16:08:48;;;;;;;0.40;0.20;;;13.50;99.90;;;;;;5090783;28;20389;-78
2021/05/11 16:11:14;;;;;;;0.40;0.20;;;13.60;99.90;;;;;;5090866;28;20727;-80
2021/05/11 16:13:40;;;;;;;0.40;0.30;;;13.50;99.90;;;;;;5090327;28;20915;-79
2021/05/11 16:16:05;;;;;;;0.40;0.27;;;13.50;99.90;;;;;;5090039;28;20424;-78
2021/05/11 16:18:33;;;;;;;0.40;0.20;;;13.50;99.90;;;;;;5091045;28;20382;-83
2021/05/11 16:20:59;;;;;;;0.40;0.20;;;13.40;99.90;;;;;;5088345;28;20394;-79
2021/05/11 16:23:25;;;;;;;0.40;0.20;;;13.50;99.90;;;;;;5090927;28;20374;-77
2021/05/11 16:25:51;;;;;;;0.40;0.20;;;13.50;99.90;;;;;;5089231;28;20869;-81
2021/05/11 16:28:16;;;;;;;0.40;0.20;;;13.50;99.90;;;;;;5090127;28;20377;-80
2021/05/11 16:30:42;;;;;;;0.40;0.30;;;13.60;99.90;;;;;;5089965;28;20453;-81
2021/05/11 16:33:11;;;;;;;0.40;0.30;;;13.80;99.90;;;;;;5083135;28;20797;-80
2021/05/11 16:35:37;;;;;;;0.40;0.30;;;13.80;99.90;;;;;;5086621;28;20422;-81
2021/05/11 16:38:02;;;;;;;0.40;0.20;;;13.70;99.90;;;;;;5080644;28;20409;-82
2021/05/11 16:40:28;;;;;;;0.50;0.50;;;13.60;99.90;;;;;;5076902;28;21860;-80
2021/05/11 16:42:56;;;;;;;0.40;0.30;;;13.60;99.90;;;;;;5079251;28;20501;-79
2021/05/11 16:45:22;;;;;;;0.40;0.30;;;13.50;99.90;;;;;;5075423;28;20970;-80
2021/05/11 16:47:55;;;;;;;0.40;0.40;;;13.60;99.90;;;;;;5076685;28;20385;-79
2021/05/11 16:50:33;;;;;;;0.40;0.30;;;13.60;99.90;;;;;;5071656;28;20657;-80
2021/05/11 16:53:01;;;;;;;0.40;0.30;;;13.60;99.90;;;;;;5073705;28;20409;-80
2021/05/11 16:55:28;;;;;;;0.40;0.20;;;13.70;99.90;;;;;;5077053;28;20390;-82
2021/05/11 16:57:57;;;;;;;0.40;0.30;;;13.60;99.90;;;;;;5077089;28;20386;-80
2021/05/11 17:00:23;;;;;;;0.40;0.30;;;13.70;99.90;;;;;;5076856;28;20390;-81
2021/05/11 17:02:52;;;;;;;0.40;0.20;;;13.70;99.90;;;;;;5078208;28;20382;-80
2021/05/11 17:05:19;;;;;;;0.40;0.20;;;13.60;99.90;;;;;;5080212;28;20827;-80
2021/05/11 17:07:46;;;;;;;0.40;0.20;;;13.50;99.90;;;;;;5079446;28;20433;-82
2021/05/11 17:10:12;;;;;;;0.50;0.28;;;13.60;99.90;;;;;;5079732;28;20820;-82
2021/05/11 17:12:38;;;;;;;0.40;0.20;;;13.40;99.90;;;;;;5081522;28;20474;-82